JCK weather

Julia Creek Airport
Queensland, Australia

Public forecast

Using degrees Celsius for public forecast. Weather courtesy of forecast.io.

METAR (pilot weather report)

Closest report is Cloncurry Airport, 68.5 nm (126.8 km) W. Retrieved 2019/04/24 05:00 UTC (27 minutes ago):

YCCY 240500Z AUTO 17011KT 9999 // SCT073 30/11 Q1014

TAF (pilot weather forecast)

Forecast is more than 12 hours old.

Closest forecast is Mount Isa Airport, 125.5 nm (232.4 km) W. Retrieved 2019/04/23 00:03 UTC (1 day ago):

TAF TAF YBMA 232244Z 2400/2412 14012KT CAVOK